sensor_id;sensor_type;location;lat;lon;timestamp;P1;durP1;ratioP1;P2;durP2;ratioP2
1000;SDS011;489;47.806;12.858;2023-05-27T00:01:54;9.70;;;8.80;;
1000;SDS011;489;47.806;12.858;2023-05-27T00:03:56;9.47;;;8.17;;
1000;SDS011;489;47.806;12.858;2023-05-27T00:05:59;9.27;;;8.37;;
1000;SDS011;489;47.806;12.858;2023-05-27T00:08:03;8.40;;;7.60;;
1000;SDS011;489;47.806;12.858;2023-05-27T00:10:06;7.80;;;7.03;;
1000;SDS011;489;47.806;12.858;2023-05-27T00:12:08;8.80;;;7.27;;
1000;SDS011;489;47.806;12.858;2023-05-27T00:14:10;9.07;;;8.17;;
1000;SDS011;489;47.806;12.858;2023-05-27T00:16:12;8.17;;;7.40;;
1000;SDS011;489;47.806;12.858;2023-05-27T00:18:14;8.63;;;7.83;;
1000;SDS011;489;47.806;12.858;2023-05-27T00:20:16;8.80;;;7.90;;
1000;SDS011;489;47.806;12.858;2023-05-27T00:22:20;8.77;;;7.87;;
1000;SDS011;489;47.806;12.858;2023-05-27T00:24:24;8.67;;;7.87;;
1000;SDS011;489;47.806;12.858;2023-05-27T00:26:26;9.70;;;7.67;;
1000;SDS011;489;47.806;12.858;2023-05-27T00:28:28;8.90;;;8.07;;
1000;SDS011;489;47.806;12.858;2023-05-27T00:30:31;8.77;;;7.20;;
1000;SDS011;489;47.806;12.858;2023-05-27T00:32:33;7.97;;;7.07;;
1000;SDS011;489;47.806;12.858;2023-05-27T00:34:35;8.63;;;7.73;;
1000;SDS011;489;47.806;12.858;2023-05-27T00:36:37;8.17;;;7.37;;
1000;SDS011;489;47.806;12.858;2023-05-27T00:38:40;8.93;;;8.10;;
1000;SDS011;489;47.806;12.858;2023-05-27T00:40:43;9.90;;;7.80;;
1000;SDS011;489;47.806;12.858;2023-05-27T00:42:46;8.87;;;7.53;;
1000;SDS011;489;47.806;12.858;2023-05-27T00:44:48;8.50;;;7.60;;
1000;SDS011;489;47.806;12.858;2023-05-27T00:46:50;9.10;;;8.20;;
1000;SDS011;489;47.806;12.858;2023-05-27T00:48:52;10.30;;;8.30;;
1000;SDS011;489;47.806;12.858;2023-05-27T00:50:54;8.57;;;7.77;;
1000;SDS011;489;47.806;12.858;2023-05-27T00:52:56;8.80;;;8.00;;
1000;SDS011;489;47.806;12.858;2023-05-27T00:54:58;9.20;;;8.17;;
1000;SDS011;489;47.806;12.858;2023-05-27T00:57:02;8.93;;;8.03;;
1000;SDS011;489;47.806;12.858;2023-05-27T00:59:05;9.53;;;8.27;;
1000;SDS011;489;47.806;12.858;2023-05-27T01:01:07;11.20;;;9.33;;
1000;SDS011;489;47.806;12.858;2023-05-27T01:03:09;8.87;;;8.07;;
1000;SDS011;489;47.806;12.858;2023-05-27T01:05:12;8.83;;;7.90;;
1000;SDS011;489;47.806;12.858;2023-05-27T01:07:17;10.37;;;8.03;;
1000;SDS011;489;47.806;12.858;2023-05-27T01:09:27;8.90;;;8.00;;
1000;SDS011;489;47.806;12.858;2023-05-27T01:11:34;8.97;;;7.87;;
1000;SDS011;489;47.806;12.858;2023-05-27T01:13:43;9.57;;;8.57;;
1000;SDS011;489;47.806;12.858;2023-05-27T01:15:48;9.20;;;8.30;;
1000;SDS011;489;47.806;12.858;2023-05-27T01:17:51;8.53;;;7.73;;
1000;SDS011;489;47.806;12.858;2023-05-27T01:19:54;9.53;;;8.33;;
1000;SDS011;489;47.806;12.858;2023-05-27T01:21:58;8.97;;;7.70;;
1000;SDS011;489;47.806;12.858;2023-05-27T01:24:05;9.13;;;8.23;;
1000;SDS011;489;47.806;12.858;2023-05-27T01:26:10;8.60;;;7.80;;
1000;SDS011;489;47.806;12.858;2023-05-27T01:28:12;9.80;;;8.37;;
1000;SDS011;489;47.806;12.858;2023-05-27T01:30:14;9.30;;;7.53;;
1000;SDS011;489;47.806;12.858;2023-05-27T01:32:18;9.60;;;8.50;;
1000;SDS011;489;47.806;12.858;2023-05-27T01:34:24;9.60;;;8.07;;
1000;SDS011;489;47.806;12.858;2023-05-27T01:36:31;8.13;;;7.33;;
1000;SDS011;489;47.806;12.858;2023-05-27T01:38:38;10.83;;;8.43;;
1000;SDS011;489;47.806;12.858;2023-05-27T01:40:43;10.70;;;8.60;;
1000;SDS011;489;47.806;12.858;2023-05-27T01:42:46;12.03;;;9.23;;
1000;SDS011;489;47.806;12.858;2023-05-27T01:44:49;9.73;;;8.73;;
1000;SDS011;489;47.806;12.858;2023-05-27T01:46:51;10.00;;;8.37;;
1000;SDS011;489;47.806;12.858;2023-05-27T01:48:59;8.50;;;7.70;;
1000;SDS011;489;47.806;12.858;2023-05-27T01:51:01;8.80;;;7.90;;
1000;SDS011;489;47.806;12.858;2023-05-27T01:53:03;9.07;;;7.90;;
1000;SDS011;489;47.806;12.858;2023-05-27T01:55:06;10.63;;;8.83;;
1000;SDS011;489;47.806;12.858;2023-05-27T01:57:11;9.30;;;8.43;;
1000;SDS011;489;47.806;12.858;2023-05-27T01:59:13;9.03;;;8.23;;
1000;SDS011;489;47.806;12.858;2023-05-27T02:01:16;9.23;;;8.43;;
1000;SDS011;489;47.806;12.858;2023-05-27T02:03:18;8.77;;;7.97;;
1000;SDS011;489;47.806;12.858;2023-05-27T02:05:21;10.40;;;8.00;;
1000;SDS011;489;47.806;12.858;2023-05-27T02:07:23;9.23;;;8.33;;
1000;SDS011;489;47.806;12.858;2023-05-27T02:09:27;9.90;;;9.00;;
1000;SDS011;489;47.806;12.858;2023-05-27T02:11:29;9.80;;;8.20;;
1000;SDS011;489;47.806;12.858;2023-05-27T02:13:33;9.77;;;8.77;;
1000;SDS011;489;47.806;12.858;2023-05-27T02:15:35;9.40;;;8.40;;
1000;SDS011;489;47.806;12.858;2023-05-27T02:17:37;10.80;;;9.10;;
1000;SDS011;489;47.806;12.858;2023-05-27T02:19:40;10.60;;;9.53;;
1000;SDS011;489;47.806;12.858;2023-05-27T02:21:44;9.60;;;8.43;;
1000;SDS011;489;47.806;12.858;2023-05-27T02:23:46;9.33;;;8.43;;
1000;SDS011;489;47.806;12.858;2023-05-27T02:25:48;11.33;;;8.70;;
1000;SDS011;489;47.806;12.858;2023-05-27T02:27:50;9.30;;;8.30;;
1000;SDS011;489;47.806;12.858;2023-05-27T02:29:53;9.77;;;8.50;;
1000;SDS011;489;47.806;12.858;2023-05-27T02:31:56;9.23;;;8.00;;
1000;SDS011;489;47.806;12.858;2023-05-27T02:33:59;9.13;;;8.23;;
1000;SDS011;489;47.806;12.858;2023-05-27T02:36:01;9.50;;;8.23;;
1000;SDS011;489;47.806;12.858;2023-05-27T02:38:03;9.33;;;8.43;;
1000;SDS011;489;47.806;12.858;2023-05-27T02:40:06;8.53;;;7.73;;
1000;SDS011;489;47.806;12.858;2023-05-27T02:42:09;9.80;;;8.80;;
1000;SDS011;489;47.806;12.858;2023-05-27T02:44:11;9.23;;;8.33;;
1000;SDS011;489;47.806;12.858;2023-05-27T02:46:14;9.47;;;8.47;;
1000;SDS011;489;47.806;12.858;2023-05-27T02:48:16;10.53;;;8.57;;
1000;SDS011;489;47.806;12.858;2023-05-27T02:50:18;9.37;;;8.40;;
1000;SDS011;489;47.806;12.858;2023-05-27T02:52:21;9.87;;;8.90;;
1000;SDS011;489;47.806;12.858;2023-05-27T02:54:22;10.20;;;9.20;;
1000;SDS011;489;47.806;12.858;2023-05-27T02:56:24;8.80;;;8.00;;
1000;SDS011;489;47.806;12.858;2023-05-27T02:58:28;9.83;;;8.73;;
1000;SDS011;489;47.806;12.858;2023-05-27T03:00:32;10.30;;;8.60;;
1000;SDS011;489;47.806;12.858;2023-05-27T03:02:35;9.30;;;8.40;;
1000;SDS011;489;47.806;12.858;2023-05-27T03:04:37;10.43;;;9.37;;
1000;SDS011;489;47.806;12.858;2023-05-27T03:06:39;9.80;;;8.67;;
1000;SDS011;489;47.806;12.858;2023-05-27T03:08:44;9.63;;;8.70;;
1000;SDS011;489;47.806;12.858;2023-05-27T03:10:46;9.20;;;8.30;;
1000;SDS011;489;47.806;12.858;2023-05-27T03:12:48;9.83;;;8.80;;
1000;SDS011;489;47.806;12.858;2023-05-27T03:14:51;10.60;;;9.27;;
1000;SDS011;489;47.806;12.858;2023-05-27T03:16:53;11.53;;;9.13;;
1000;SDS011;489;47.806;12.858;2023-05-27T03:18:57;11.20;;;9.23;;
1000;SDS011;489;47.806;12.858;2023-05-27T03:20:59;8.90;;;8.00;;
1000;SDS011;489;47.806;12.858;2023-05-27T03:23:01;10.17;;;9.17;;
1000;SDS011;489;47.806;12.858;2023-05-27T03:25:04;9.87;;;8.97;;
1000;SDS011;489;47.806;12.858;2023-05-27T03:27:06;10.30;;;8.57;;
1000;SDS011;489;47.806;12.858;2023-05-27T03:29:11;9.07;;;8.17;;
1000;SDS011;489;47.806;12.858;2023-05-27T03:31:12;10.20;;;9.20;;
1000;SDS011;489;47.806;12.858;2023-05-27T03:33:26;9.20;;;8.40;;
1000;SDS011;489;47.806;12.858;2023-05-27T03:35:30;10.23;;;9.23;;
1000;SDS011;489;47.806;12.858;2023-05-27T03:37:32;12.70;;;9.30;;
1000;SDS011;489;47.806;12.858;2023-05-27T03:39:39;11.83;;;8.80;;
1000;SDS011;489;47.806;12.858;2023-05-27T03:41:42;9.50;;;8.60;;
1000;SDS011;489;47.806;12.858;2023-05-27T03:43:46;10.10;;;9.10;;
1000;SDS011;489;47.806;12.858;2023-05-27T03:45:50;10.90;;;9.17;;
1000;SDS011;489;47.806;12.858;2023-05-27T03:47:52;10.70;;;9.33;;
1000;SDS011;489;47.806;12.858;2023-05-27T03:49:54;10.33;;;9.20;;
1000;SDS011;489;47.806;12.858;2023-05-27T03:51:59;9.93;;;8.93;;
1000;SDS011;489;47.806;12.858;2023-05-27T03:54:19;10.20;;;9.13;;
1000;SDS011;489;47.806;12.858;2023-05-27T03:56:23;10.43;;;9.33;;
1000;SDS011;489;47.806;12.858;2023-05-27T03:58:25;8.27;;;7.57;;
1000;SDS011;489;47.806;12.858;2023-05-27T04:00:28;9.60;;;8.70;;
1000;SDS011;489;47.806;12.858;2023-05-27T04:02:30;9.57;;;8.67;;
1000;SDS011;489;47.806;12.858;2023-05-27T04:04:33;10.07;;;9.03;;
1000;SDS011;489;47.806;12.858;2023-05-27T04:06:35;10.03;;;9.13;;
1000;SDS011;489;47.806;12.858;2023-05-27T04:08:41;9.90;;;8.83;;
1000;SDS011;489;47.806;12.858;2023-05-27T04:10:44;9.80;;;8.70;;
1000;SDS011;489;47.806;12.858;2023-05-27T04:12:46;10.63;;;9.60;;
1000;SDS011;489;47.806;12.858;2023-05-27T04:14:48;12.27;;;9.90;;
1000;SDS011;489;47.806;12.858;2023-05-27T04:16:50;10.23;;;9.23;;
1000;SDS011;489;47.806;12.858;2023-05-27T04:18:53;9.67;;;8.17;;
1000;SDS011;489;47.806;12.858;2023-05-27T04:20:55;11.37;;;8.93;;
1000;SDS011;489;47.806;12.858;2023-05-27T04:22:58;10.20;;;8.93;;
1000;SDS011;489;47.806;12.858;2023-05-27T04:25:02;10.00;;;9.00;;
1000;SDS011;489;47.806;12.858;2023-05-27T04:27:11;11.23;;;9.10;;
1000;SDS011;489;47.806;12.858;2023-05-27T04:29:13;10.50;;;9.43;;
1000;SDS011;489;47.806;12.858;2023-05-27T04:31:16;11.63;;;9.03;;
1000;SDS011;489;47.806;12.858;2023-05-27T04:33:27;9.53;;;8.50;;
1000;SDS011;489;47.806;12.858;2023-05-27T04:35:29;9.90;;;8.90;;
1000;SDS011;489;47.806;12.858;2023-05-27T04:37:31;10.00;;;9.00;;
1000;SDS011;489;47.806;12.858;2023-05-27T04:39:34;11.07;;;8.93;;
1000;SDS011;489;47.806;12.858;2023-05-27T04:41:38;9.07;;;8.27;;
1000;SDS011;489;47.806;12.858;2023-05-27T04:43:45;11.07;;;8.93;;
1000;SDS011;489;47.806;12.858;2023-05-27T04:45:52;9.70;;;8.70;;
1000;SDS011;489;47.806;12.858;2023-05-27T04:47:54;9.90;;;8.90;;
1000;SDS011;489;47.806;12.858;2023-05-27T04:49:59;10.30;;;9.20;;
1000;SDS011;489;47.806;12.858;2023-05-27T04:52:03;11.20;;;9.37;;
1000;SDS011;489;47.806;12.858;2023-05-27T04:54:25;10.87;;;9.77;;
1000;SDS011;489;47.806;12.858;2023-05-27T04:56:29;10.67;;;9.67;;
1000;SDS011;489;47.806;12.858;2023-05-27T04:58:33;10.63;;;9.60;;
1000;SDS011;489;47.806;12.858;2023-05-27T05:00:36;11.10;;;10.00;;
1000;SDS011;489;47.806;12.858;2023-05-27T05:02:49;11.40;;;9.90;;
1000;SDS011;489;47.806;12.858;2023-05-27T05:05:01;8.90;;;8.00;;
1000;SDS011;489;47.806;12.858;2023-05-27T05:07:03;9.27;;;8.37;;
1000;SDS011;489;47.806;12.858;2023-05-27T05:09:08;11.03;;;9.93;;
1000;SDS011;489;47.806;12.858;2023-05-27T05:11:12;11.20;;;10.10;;
1000;SDS011;489;47.806;12.858;2023-05-27T05:13:16;10.23;;;9.13;;
1000;SDS011;489;47.806;12.858;2023-05-27T05:15:19;10.43;;;9.30;;
1000;SDS011;489;47.806;12.858;2023-05-27T05:17:23;10.33;;;9.33;;
1000;SDS011;489;47.806;12.858;2023-05-27T05:19:25;10.03;;;9.03;;
1000;SDS011;489;47.806;12.858;2023-05-27T05:21:27;11.03;;;9.83;;
1000;SDS011;489;47.806;12.858;2023-05-27T05:23:30;10.23;;;9.13;;
1000;SDS011;489;47.806;12.858;2023-05-27T05:25:33;10.57;;;9.57;;
1000;SDS011;489;47.806;12.858;2023-05-27T05:27:40;9.70;;;8.17;;
1000;SDS011;489;47.806;12.858;2023-05-27T05:29:43;10.00;;;8.90;;
1000;SDS011;489;47.806;12.858;2023-05-27T05:31:46;10.60;;;9.50;;
1000;SDS011;489;47.806;12.858;2023-05-27T05:33:51;9.93;;;9.10;;
1000;SDS011;489;47.806;12.858;2023-05-27T05:35:53;9.60;;;8.60;;
1000;SDS011;489;47.806;12.858;2023-05-27T05:38:00;11.57;;;9.10;;
1000;SDS011;489;47.806;12.858;2023-05-27T05:40:02;9.77;;;8.77;;
1000;SDS011;489;47.806;12.858;2023-05-27T05:42:08;9.87;;;8.70;;
1000;SDS011;489;47.806;12.858;2023-05-27T05:44:10;9.93;;;8.30;;
1000;SDS011;489;47.806;12.858;2023-05-27T05:46:12;14.47;;;9.20;;
1000;SDS011;489;47.806;12.858;2023-05-27T05:48:16;10.47;;;9.03;;
1000;SDS011;489;47.806;12.858;2023-05-27T05:50:19;9.47;;;8.57;;
1000;SDS011;489;47.806;12.858;2023-05-27T05:52:21;10.17;;;9.17;;
1000;SDS011;489;47.806;12.858;2023-05-27T05:54:23;11.70;;;9.43;;
1000;SDS011;489;47.806;12.858;2023-05-27T05:56:29;10.90;;;9.00;;
1000;SDS011;489;47.806;12.858;2023-05-27T05:58:31;10.10;;;9.00;;
1000;SDS011;489;47.806;12.858;2023-05-27T06:00:33;11.60;;;10.43;;
1000;SDS011;489;47.806;12.858;2023-05-27T06:02:58;11.13;;;9.93;;
1000;SDS011;489;47.806;12.858;2023-05-27T06:05:20;13.37;;;12.07;;
1000;SDS011;489;47.806;12.858;2023-05-27T06:07:26;12.70;;;11.50;;
1000;SDS011;489;47.806;12.858;2023-05-27T06:09:35;13.20;;;11.90;;
1000;SDS011;489;47.806;12.858;2023-05-27T06:11:41;13.60;;;12.20;;
1000;SDS011;489;47.806;12.858;2023-05-27T06:13:43;14.10;;;12.60;;
1000;SDS011;489;47.806;12.858;2023-05-27T06:15:48;13.10;;;11.90;;
1000;SDS011;489;47.806;12.858;2023-05-27T06:17:50;12.17;;;10.97;;
1000;SDS011;489;47.806;12.858;2023-05-27T06:19:52;13.30;;;12.00;;
1000;SDS011;489;47.806;12.858;2023-05-27T06:21:56;11.60;;;10.40;;
1000;SDS011;489;47.806;12.858;2023-05-27T06:24:16;11.77;;;10.67;;
1000;SDS011;489;47.806;12.858;2023-05-27T06:26:23;11.60;;;10.50;;
1000;SDS011;489;47.806;12.858;2023-05-27T06:28:28;11.73;;;10.53;;
1000;SDS011;489;47.806;12.858;2023-05-27T06:30:31;12.57;;;11.37;;
1000;SDS011;489;47.806;12.858;2023-05-27T06:32:34;12.50;;;11.27;;
1000;SDS011;489;47.806;12.858;2023-05-27T06:34:36;11.80;;;10.10;;
1000;SDS011;489;47.806;12.858;2023-05-27T06:36:39;12.17;;;10.27;;
1000;SDS011;489;47.806;12.858;2023-05-27T06:38:43;11.47;;;9.87;;
1000;SDS011;489;47.806;12.858;2023-05-27T06:40:45;11.90;;;10.20;;
1000;SDS011;489;47.806;12.858;2023-05-27T06:42:47;14.80;;;11.27;;
1000;SDS011;489;47.806;12.858;2023-05-27T06:44:59;11.90;;;10.70;;
1000;SDS011;489;47.806;12.858;2023-05-27T06:47:02;12.07;;;10.67;;
1000;SDS011;489;47.806;12.858;2023-05-27T06:49:05;14.27;;;9.93;;
1000;SDS011;489;47.806;12.858;2023-05-27T06:51:07;10.83;;;9.73;;
1000;SDS011;489;47.806;12.858;2023-05-27T06:53:09;11.90;;;10.67;;
1000;SDS011;489;47.806;12.858;2023-05-27T06:55:26;11.47;;;10.23;;
1000;SDS011;489;47.806;12.858;2023-05-27T06:57:47;9.97;;;8.97;;
1000;SDS011;489;47.806;12.858;2023-05-27T06:59:55;10.97;;;9.93;;
1000;SDS011;489;47.806;12.858;2023-05-27T07:01:57;10.23;;;9.13;;
1000;SDS011;489;47.806;12.858;2023-05-27T07:03:59;10.40;;;8.90;;
1000;SDS011;489;47.806;12.858;2023-05-27T07:06:13;10.27;;;9.13;;
1000;SDS011;489;47.806;12.858;2023-05-27T07:08:37;9.80;;;8.80;;
1000;SDS011;489;47.806;12.858;2023-05-27T07:11:10;12.93;;;8.90;;
1000;SDS011;489;47.806;12.858;2023-05-27T07:13:12;12.20;;;9.70;;
1000;SDS011;489;47.806;12.858;2023-05-27T07:15:24;11.07;;;8.80;;
1000;SDS011;489;47.806;12.858;2023-05-27T07:17:28;11.67;;;9.40;;
1000;SDS011;489;47.806;12.858;2023-05-27T07:19:30;9.80;;;8.80;;
1000;SDS011;489;47.806;12.858;2023-05-27T07:21:36;10.73;;;9.30;;
1000;SDS011;489;47.806;12.858;2023-05-27T07:23:42;10.60;;;8.73;;
1000;SDS011;489;47.806;12.858;2023-05-27T07:25:58;11.23;;;8.50;;
1000;SDS011;489;47.806;12.858;2023-05-27T07:28:02;10.30;;;8.70;;
1000;SDS011;489;47.806;12.858;2023-05-27T07:30:05;11.63;;;8.60;;
1000;SDS011;489;47.806;12.858;2023-05-27T07:32:24;10.30;;;8.57;;
1000;SDS011;489;47.806;12.858;2023-05-27T07:34:26;12.40;;;8.37;;
1000;SDS011;489;47.806;12.858;2023-05-27T07:36:28;9.27;;;8.30;;
1000;SDS011;489;47.806;12.858;2023-05-27T07:38:30;9.40;;;8.50;;
1000;SDS011;489;47.806;12.858;2023-05-27T07:40:32;9.80;;;8.80;;
1000;SDS011;489;47.806;12.858;2023-05-27T07:42:34;10.70;;;8.70;;
1000;SDS011;489;47.806;12.858;2023-05-27T07:44:37;10.00;;;9.03;;
1000;SDS011;489;47.806;12.858;2023-05-27T07:46:40;9.30;;;8.00;;
1000;SDS011;489;47.806;12.858;2023-05-27T07:48:42;8.70;;;7.80;;
1000;SDS011;489;47.806;12.858;2023-05-27T07:50:44;10.63;;;8.40;;
1000;SDS011;489;47.806;12.858;2023-05-27T07:52:51;9.63;;;8.50;;
1000;SDS011;489;47.806;12.858;2023-05-27T07:55:01;10.70;;;9.70;;
1000;SDS011;489;47.806;12.858;2023-05-27T07:57:04;9.93;;;8.57;;
1000;SDS011;489;47.806;12.858;2023-05-27T07:59:06;9.93;;;8.93;;
1000;SDS011;489;47.806;12.858;2023-05-27T08:01:10;10.73;;;8.63;;
1000;SDS011;489;47.806;12.858;2023-05-27T08:03:18;10.40;;;9.40;;
1000;SDS011;489;47.806;12.858;2023-05-27T08:05:41;8.90;;;8.00;;
1000;SDS011;489;47.806;12.858;2023-05-27T08:08:06;10.00;;;8.07;;
1000;SDS011;489;47.806;12.858;2023-05-27T08:10:30;10.10;;;8.30;;
1000;SDS011;489;47.806;12.858;2023-05-27T08:12:43;9.30;;;8.30;;
1000;SDS011;489;47.806;12.858;2023-05-27T08:14:57;9.67;;;8.67;;
1000;SDS011;489;47.806;12.858;2023-05-27T08:17:03;9.47;;;7.90;;
1000;SDS011;489;47.806;12.858;2023-05-27T08:19:26;10.90;;;9.10;;
1000;SDS011;489;47.806;12.858;2023-05-27T08:21:51;9.50;;;8.57;;
1000;SDS011;489;47.806;12.858;2023-05-27T08:24:33;9.73;;;8.73;;
1000;SDS011;489;47.806;12.858;2023-05-27T08:26:53;11.03;;;9.77;;
1000;SDS011;489;47.806;12.858;2023-05-27T08:29:01;10.73;;;9.00;;
1000;SDS011;489;47.806;12.858;2023-05-27T08:31:21;9.07;;;8.27;;
1000;SDS011;489;47.806;12.858;2023-05-27T08:33:29;8.97;;;7.77;;
1000;SDS011;489;47.806;12.858;2023-05-27T08:35:31;9.60;;;8.70;;
1000;SDS011;489;47.806;12.858;2023-05-27T08:37:33;10.47;;;9.47;;
1000;SDS011;489;47.806;12.858;2023-05-27T08:39:36;9.03;;;8.23;;
1000;SDS011;489;47.806;12.858;2023-05-27T08:41:47;9.73;;;8.80;;
1000;SDS011;489;47.806;12.858;2023-05-27T08:43:49;11.47;;;8.83;;
1000;SDS011;489;47.806;12.858;2023-05-27T08:45:53;9.43;;;8.53;;
1000;SDS011;489;47.806;12.858;2023-05-27T08:47:55;9.67;;;8.80;;
1000;SDS011;489;47.806;12.858;2023-05-27T08:50:08;7.83;;;7.03;;
1000;SDS011;489;47.806;12.858;2023-05-27T08:52:10;10.93;;;9.53;;
1000;SDS011;489;47.806;12.858;2023-05-27T08:54:14;10.20;;;9.20;;
1000;SDS011;489;47.806;12.858;2023-05-27T08:56:18;10.90;;;8.67;;
1000;SDS011;489;47.806;12.858;2023-05-27T08:58:21;11.23;;;8.63;;
1000;SDS011;489;47.806;12.858;2023-05-27T09:00:26;10.50;;;9.50;;
1000;SDS011;489;47.806;12.858;2023-05-27T09:02:33;10.80;;;8.70;;
1000;SDS011;489;47.806;12.858;2023-05-27T09:04:36;9.80;;;8.80;;
1000;SDS011;489;47.806;12.858;2023-05-27T09:06:39;10.00;;;9.10;;
1000;SDS011;489;47.806;12.858;2023-05-27T09:08:41;9.00;;;8.10;;
1000;SDS011;489;47.806;12.858;2023-05-27T09:10:43;10.50;;;8.73;;
1000;SDS011;489;47.806;12.858;2023-05-27T09:12:45;10.50;;;8.90;;
1000;SDS011;489;47.806;12.858;2023-05-27T09:14:49;9.57;;;8.60;;
1000;SDS011;489;47.806;12.858;2023-05-27T09:16:51;11.60;;;9.37;;
1000;SDS011;489;47.806;12.858;2023-05-27T09:18:53;11.10;;;9.07;;
1000;SDS011;489;47.806;12.858;2023-05-27T09:20:55;8.90;;;8.10;;
1000;SDS011;489;47.806;12.858;2023-05-27T09:22:59;8.50;;;7.70;;
1000;SDS011;489;47.806;12.858;2023-05-27T09:25:01;8.90;;;8.00;;
1000;SDS011;489;47.806;12.858;2023-05-27T09:27:03;8.60;;;7.80;;
1000;SDS011;489;47.806;12.858;2023-05-27T09:29:05;9.57;;;8.57;;
1000;SDS011;489;47.806;12.858;2023-05-27T09:31:08;10.50;;;9.30;;
1000;SDS011;489;47.806;12.858;2023-05-27T09:33:10;9.20;;;8.30;;
1000;SDS011;489;47.806;12.858;2023-05-27T09:35:12;10.03;;;9.03;;
1000;SDS011;489;47.806;12.858;2023-05-27T09:37:16;9.30;;;8.40;;
1000;SDS011;489;47.806;12.858;2023-05-27T09:39:22;9.60;;;8.40;;
1000;SDS011;489;47.806;12.858;2023-05-27T09:41:25;9.43;;;8.53;;
1000;SDS011;489;47.806;12.858;2023-05-27T09:43:27;7.53;;;6.90;;
1000;SDS011;489;47.806;12.858;2023-05-27T09:45:29;8.27;;;7.47;;
1000;SDS011;489;47.806;12.858;2023-05-27T09:47:32;10.90;;;8.40;;
1000;SDS011;489;47.806;12.858;2023-05-27T09:49:37;8.10;;;7.30;;
1000;SDS011;489;47.806;12.858;2023-05-27T09:51:39;9.10;;;8.20;;
1000;SDS011;489;47.806;12.858;2023-05-27T09:53:42;9.37;;;8.30;;
1000;SDS011;489;47.806;12.858;2023-05-27T09:55:46;9.53;;;8.63;;
1000;SDS011;489;47.806;12.858;2023-05-27T09:57:48;8.33;;;7.60;;
1000;SDS011;489;47.806;12.858;2023-05-27T09:59:50;9.33;;;7.87;;
1000;SDS011;489;47.806;12.858;2023-05-27T10:01:53;9.77;;;8.50;;
1000;SDS011;489;47.806;12.858;2023-05-27T10:03:55;9.00;;;8.10;;
1000;SDS011;489;47.806;12.858;2023-05-27T10:05:57;7.93;;;7.20;;
1000;SDS011;489;47.806;12.858;2023-05-27T10:07:59;9.67;;;7.40;;
1000;SDS011;489;47.806;12.858;2023-05-27T10:10:01;9.53;;;8.53;;
1000;SDS011;489;47.806;12.858;2023-05-27T10:12:05;6.73;;;6.13;;
1000;SDS011;489;47.806;12.858;2023-05-27T10:14:08;8.13;;;7.30;;
1000;SDS011;489;47.806;12.858;2023-05-27T10:16:18;7.00;;;6.40;;
1000;SDS011;489;47.806;12.858;2023-05-27T10:18:25;7.73;;;6.73;;
1000;SDS011;489;47.806;12.858;2023-05-27T10:20:27;7.83;;;7.03;;
1000;SDS011;489;47.806;12.858;2023-05-27T10:22:37;9.03;;;6.70;;
1000;SDS011;489;47.806;12.858;2023-05-27T10:24:40;7.77;;;7.00;;
1000;SDS011;489;47.806;12.858;2023-05-27T10:26:45;7.10;;;6.40;;
1000;SDS011;489;47.806;12.858;2023-05-27T10:28:49;6.60;;;5.90;;
1000;SDS011;489;47.806;12.858;2023-05-27T10:30:52;6.93;;;6.17;;
1000;SDS011;489;47.806;12.858;2023-05-27T10:32:54;7.50;;;6.80;;
1000;SDS011;489;47.806;12.858;2023-05-27T10:34:57;7.77;;;6.83;;
1000;SDS011;489;47.806;12.858;2023-05-27T10:37:00;5.80;;;5.10;;
1000;SDS011;489;47.806;12.858;2023-05-27T10:39:03;6.90;;;5.30;;
1000;SDS011;489;47.806;12.858;2023-05-27T10:41:06;7.70;;;6.87;;
1000;SDS011;489;47.806;12.858;2023-05-27T10:43:14;8.00;;;5.93;;
1000;SDS011;489;47.806;12.858;2023-05-27T10:45:18;6.27;;;5.67;;
1000;SDS011;489;47.806;12.858;2023-05-27T10:47:21;6.50;;;5.37;;
1000;SDS011;489;47.806;12.858;2023-05-27T10:49:32;6.23;;;5.53;;
1000;SDS011;489;47.806;12.858;2023-05-27T10:51:36;6.33;;;5.70;;
1000;SDS011;489;47.806;12.858;2023-05-27T10:53:38;5.80;;;5.20;;
1000;SDS011;489;47.806;12.858;2023-05-27T10:55:40;9.13;;;5.77;;
1000;SDS011;489;47.806;12.858;2023-05-27T10:57:42;6.30;;;5.70;;
1000;SDS011;489;47.806;12.858;2023-05-27T10:59:46;7.00;;;6.30;;
1000;SDS011;489;47.806;12.858;2023-05-27T11:01:52;7.63;;;6.27;;
1000;SDS011;489;47.806;12.858;2023-05-27T11:03:54;5.60;;;5.10;;
1000;SDS011;489;47.806;12.858;2023-05-27T11:05:58;8.73;;;6.13;;
1000;SDS011;489;47.806;12.858;2023-05-27T11:08:02;6.27;;;5.50;;
1000;SDS011;489;47.806;12.858;2023-05-27T11:10:09;6.80;;;5.00;;
1000;SDS011;489;47.806;12.858;2023-05-27T11:12:14;5.00;;;4.60;;
1000;SDS011;489;47.806;12.858;2023-05-27T11:14:17;5.20;;;4.77;;
1000;SDS011;489;47.806;12.858;2023-05-27T11:16:20;7.73;;;5.60;;
1000;SDS011;489;47.806;12.858;2023-05-27T11:18:24;5.80;;;5.17;;
1000;SDS011;489;47.806;12.858;2023-05-27T11:20:33;7.63;;;5.87;;
1000;SDS011;489;47.806;12.858;2023-05-27T11:22:35;8.80;;;5.60;;
1000;SDS011;489;47.806;12.858;2023-05-27T11:24:38;6.37;;;5.73;;
1000;SDS011;489;47.806;12.858;2023-05-27T11:26:41;7.07;;;6.00;;
1000;SDS011;489;47.806;12.858;2023-05-27T11:28:44;6.20;;;5.60;;
1000;SDS011;489;47.806;12.858;2023-05-27T11:30:47;5.07;;;4.60;;
1000;SDS011;489;47.806;12.858;2023-05-27T11:32:49;6.17;;;4.53;;
1000;SDS011;489;47.806;12.858;2023-05-27T11:34:53;4.10;;;3.70;;
1000;SDS011;489;47.806;12.858;2023-05-27T11:37:00;7.53;;;5.50;;
1000;SDS011;489;47.806;12.858;2023-05-27T11:39:04;5.47;;;4.97;;
1000;SDS011;489;47.806;12.858;2023-05-27T11:41:06;6.17;;;5.20;;
1000;SDS011;489;47.806;12.858;2023-05-27T11:43:08;5.03;;;4.53;;
1000;SDS011;489;47.806;12.858;2023-05-27T11:45:14;6.50;;;5.90;;
1000;SDS011;489;47.806;12.858;2023-05-27T11:47:17;4.60;;;4.10;;
1000;SDS011;489;47.806;12.858;2023-05-27T11:49:19;5.90;;;5.17;;
1000;SDS011;489;47.806;12.858;2023-05-27T11:51:27;5.80;;;4.93;;
1000;SDS011;489;47.806;12.858;2023-05-27T11:53:30;6.57;;;5.40;;
1000;SDS011;489;47.806;12.858;2023-05-27T11:55:38;7.33;;;6.60;;
1000;SDS011;489;47.806;12.858;2023-05-27T11:57:40;6.53;;;4.97;;
1000;SDS011;489;47.806;12.858;2023-05-27T11:59:42;4.40;;;4.10;;
1000;SDS011;489;47.806;12.858;2023-05-27T12:01:44;6.37;;;5.40;;
1000;SDS011;489;47.806;12.858;2023-05-27T12:03:46;5.10;;;4.60;;
1000;SDS011;489;47.806;12.858;2023-05-27T12:05:48;5.97;;;5.37;;
1000;SDS011;489;47.806;12.858;2023-05-27T12:07:52;5.20;;;4.17;;
1000;SDS011;489;47.806;12.858;2023-05-27T12:09:54;4.73;;;4.23;;
1000;SDS011;489;47.806;12.858;2023-05-27T12:11:55;6.20;;;5.60;;
1000;SDS011;489;47.806;12.858;2023-05-27T12:13:58;7.87;;;5.50;;
1000;SDS011;489;47.806;12.858;2023-05-27T12:15:59;5.53;;;4.73;;
1000;SDS011;489;47.806;12.858;2023-05-27T12:18:03;4.70;;;4.30;;
1000;SDS011;489;47.806;12.858;2023-05-27T12:20:06;6.60;;;4.83;;
1000;SDS011;489;47.806;12.858;2023-05-27T12:22:08;5.03;;;4.53;;
1000;SDS011;489;47.806;12.858;2023-05-27T12:24:12;4.60;;;4.20;;
1000;SDS011;489;47.806;12.858;2023-05-27T12:26:14;4.43;;;4.03;;
1000;SDS011;489;47.806;12.858;2023-05-27T12:28:16;5.60;;;4.60;;
1000;SDS011;489;47.806;12.858;2023-05-27T12:30:18;5.40;;;4.83;;
1000;SDS011;489;47.806;12.858;2023-05-27T12:32:20;4.20;;;3.77;;
1000;SDS011;489;47.806;12.858;2023-05-27T12:34:22;6.47;;;4.97;;
1000;SDS011;489;47.806;12.858;2023-05-27T12:36:24;6.27;;;4.90;;
1000;SDS011;489;47.806;12.858;2023-05-27T12:38:26;5.00;;;4.10;;
1000;SDS011;489;47.806;12.858;2023-05-27T12:40:30;4.77;;;4.27;;
1000;SDS011;489;47.806;12.858;2023-05-27T12:42:33;4.47;;;4.10;;
1000;SDS011;489;47.806;12.858;2023-05-27T12:44:35;4.43;;;3.90;;
1000;SDS011;489;47.806;12.858;2023-05-27T12:46:37;5.37;;;4.80;;
1000;SDS011;489;47.806;12.858;2023-05-27T12:48:39;6.10;;;5.20;;
1000;SDS011;489;47.806;12.858;2023-05-27T12:50:41;4.80;;;4.40;;